This is the latest recevied weather packets stored in our database for station/object KQ4WWD. If no packets are shown the sender has not sent any weather packets the latest 10 day(s).
| Time | Temp. | Humidity | Pressure | Rain* | Wind** | Luminosity | Snow |
|---|---|---|---|---|---|---|---|
| 1787835685 | 26.67° C | 83% | 1016.3 hPa | 0 mm | - | 244 W/m² | - |
| 1787835380 | 26.67° C | 85% | 1016.4 hPa | 0 mm | - | 58 W/m² | - |
| 1787835075 | 26.11° C | 85% | 1016.4 hPa | 0 mm | - | 59 W/m² | - |
| 1787834773 | 26.11° C | 86% | 1016.3 hPa | 0 mm | - | 184 W/m² | - |
| 1787834469 | 25.56° C | 86% | 1016.6 hPa | 0 mm | - | 55 W/m² | - |
| 1787834164 | 25.56° C | 87% | 1016.6 hPa | 0 mm | - | 54 W/m² | - |
| 1787833860 | 25° C | 88% | 1016.7 hPa | 0 mm | - | 49 W/m² | - |
| 1787833555 | 25° C | 89% | 1016.3 hPa | 0 mm | - | 114 W/m² | - |
| 1787833251 | 24.44° C | 90% | 1016.4 hPa | 0 mm | - | 74 W/m² | - |
| 1787832946 | 24.44° C | 91% | 1016.4 hPa | 0 mm | - | 45 W/m² | - |
| 1787832642 | 24.44° C | 91% | 1016.5 hPa | 0 mm | - | 43 W/m² | - |
| 1787832340 | 23.89° C | 92% | 1016.7 hPa | 0 mm | - | 44 W/m² | - |
| 1787832040 | 23.89° C | 92% | 1016.5 hPa | 0 mm | - | 40 W/m² | - |
| 1787831734 | 23.89° C | 92% | 1016.7 hPa | 0 mm | - | 37 W/m² | - |
| 1787831433 | 23.89° C | 93% | 1016.4 hPa | 0 mm | - | 34 W/m² | - |
| 1787831135 | 23.89° C | 93% | 1016.4 hPa | 0 mm | - | 30 W/m² | - |
| 1787830831 | 23.33° C | 93% | 1016.4 hPa | 0 mm | - | 26 W/m² | - |
| 1787830528 | 23.33° C | 93% | 1016.3 hPa | 0 mm | - | 23 W/m² | - |
| 1787830228 | 23.33° C | 93% | 1016.3 hPa | 0 mm | - | 19 W/m² | - |
| 1787829928 | 23.33° C | 93% | 1016.2 hPa | 0 mm | - | 15 W/m² | - |
| 1787829627 | 23.33° C | 93% | 1016.2 hPa | 0 mm | - | 10 W/m² | - |
| 1787829323 | 23.33° C | 93% | 1016 hPa | 0 mm | - | 6 W/m² | - |
| 1787829018 | 22.78° C | 93% | 1015.8 hPa | 0 mm | - | 4 W/m² | - |
| 1787828714 | 22.78° C | 93% | 1015.7 hPa | 0 mm | - | 1 W/m² | - |
| 1787828410 | 22.78° C | 93% | 1015.7 hPa | 0 mm | - | 0 W/m² | - |
* Rain latest hour (hover to see other rain measurements)
** Current wind speed in m/s (hover to see current wind gust speed)